sensor_id;sensor_type;location;lat;lon;timestamp;P1;durP1;ratioP1;P2;durP2;ratioP2
12958;SDS011;6544;51.666;6.634;2022-10-16T00:01:13;8.25;;;4.50;;
12958;SDS011;6544;51.666;6.634;2022-10-16T00:03:43;9.60;;;4.10;;
12958;SDS011;6544;51.666;6.634;2022-10-16T00:06:10;7.65;;;4.00;;
12958;SDS011;6544;51.666;6.634;2022-10-16T00:08:38;7.00;;;3.85;;
12958;SDS011;6544;51.666;6.634;2022-10-16T00:11:05;8.38;;;4.15;;
12958;SDS011;6544;51.666;6.634;2022-10-16T00:13:35;10.98;;;4.25;;
12958;SDS011;6544;51.666;6.634;2022-10-16T00:16:03;5.60;;;4.10;;
12958;SDS011;6544;51.666;6.634;2022-10-16T00:18:31;7.47;;;4.07;;
12958;SDS011;6544;51.666;6.634;2022-10-16T00:21:01;7.00;;;4.03;;
12958;SDS011;6544;51.666;6.634;2022-10-16T00:23:29;7.78;;;4.28;;
12958;SDS011;6544;51.666;6.634;2022-10-16T00:25:56;10.52;;;4.20;;
12958;SDS011;6544;51.666;6.634;2022-10-16T00:28:24;6.45;;;3.70;;
12958;SDS011;6544;51.666;6.634;2022-10-16T00:30:53;7.50;;;3.50;;
12958;SDS011;6544;51.666;6.634;2022-10-16T00:33:20;5.55;;;3.78;;
12958;SDS011;6544;51.666;6.634;2022-10-16T00:35:48;5.45;;;3.83;;
12958;SDS011;6544;51.666;6.634;2022-10-16T00:38:15;8.38;;;4.70;;
12958;SDS011;6544;51.666;6.634;2022-10-16T00:40:42;11.75;;;4.78;;
12958;SDS011;6544;51.666;6.634;2022-10-16T00:43:12;7.25;;;4.45;;
12958;SDS011;6544;51.666;6.634;2022-10-16T00:45:41;9.25;;;5.13;;
12958;SDS011;6544;51.666;6.634;2022-10-16T00:48:11;8.52;;;4.40;;
12958;SDS011;6544;51.666;6.634;2022-10-16T00:50:39;5.45;;;3.60;;
12958;SDS011;6544;51.666;6.634;2022-10-16T00:53:08;6.55;;;3.50;;
12958;SDS011;6544;51.666;6.634;2022-10-16T00:55:38;7.93;;;3.28;;
12958;SDS011;6544;51.666;6.634;2022-10-16T00:58:05;5.43;;;3.83;;
12958;SDS011;6544;51.666;6.634;2022-10-16T01:00:32;7.07;;;3.22;;
12958;SDS011;6544;51.666;6.634;2022-10-16T01:02:59;7.53;;;3.25;;
12958;SDS011;6544;51.666;6.634;2022-10-16T01:05:30;7.18;;;3.40;;
12958;SDS011;6544;51.666;6.634;2022-10-16T01:08:03;6.63;;;3.28;;
12958;SDS011;6544;51.666;6.634;2022-10-16T01:10:35;5.10;;;2.70;;
12958;SDS011;6544;51.666;6.634;2022-10-16T01:13:07;3.92;;;2.80;;
12958;SDS011;6544;51.666;6.634;2022-10-16T01:15:38;4.57;;;3.10;;
12958;SDS011;6544;51.666;6.634;2022-10-16T01:18:13;5.28;;;2.78;;
12958;SDS011;6544;51.666;6.634;2022-10-16T01:20:46;5.78;;;3.00;;
12958;SDS011;6544;51.666;6.634;2022-10-16T01:23:21;4.60;;;;;
12958;SDS011;6544;51.666;6.634;2022-10-16T01:26:11;9.25;;;3.10;;
12958;SDS011;6544;51.666;6.634;2022-10-16T01:28:49;7.07;;;3.05;;
12958;SDS011;6544;51.666;6.634;2022-10-16T01:31:22;3.70;;;2.50;;
12958;SDS011;6544;51.666;6.634;2022-10-16T01:33:53;6.13;;;3.20;;
12958;SDS011;6544;51.666;6.634;2022-10-16T01:36:27;4.45;;;3.00;;
12958;SDS011;6544;51.666;6.634;2022-10-16T01:39:01;3.97;;;2.63;;
12958;SDS011;6544;51.666;6.634;2022-10-16T01:41:30;4.30;;;2.63;;
12958;SDS011;6544;51.666;6.634;2022-10-16T01:44:02;6.93;;;3.42;;
12958;SDS011;6544;51.666;6.634;2022-10-16T01:46:34;6.63;;;4.38;;
12958;SDS011;6544;51.666;6.634;2022-10-16T01:49:03;8.93;;;7.88;;
12958;SDS011;6544;51.666;6.634;2022-10-16T01:51:30;13.35;;;11.38;;
12958;SDS011;6544;51.666;6.634;2022-10-16T01:53:58;21.30;;;19.02;;
12958;SDS011;6544;51.666;6.634;2022-10-16T01:56:27;32.35;;;28.90;;
12958;SDS011;6544;51.666;6.634;2022-10-16T01:58:56;36.92;;;32.90;;
12958;SDS011;6544;51.666;6.634;2022-10-16T02:01:29;45.10;;;39.97;;
12958;SDS011;6544;51.666;6.634;2022-10-16T02:04:01;50.83;;;45.28;;
12958;SDS011;6544;51.666;6.634;2022-10-16T02:06:31;50.97;;;45.45;;
12958;SDS011;6544;51.666;6.634;2022-10-16T02:09:07;47.83;;;42.60;;
12958;SDS011;6544;51.666;6.634;2022-10-16T02:11:34;55.25;;;49.35;;
12958;SDS011;6544;51.666;6.634;2022-10-16T02:14:02;50.10;;;44.85;;
12958;SDS011;6544;51.666;6.634;2022-10-16T02:16:37;45.22;;;40.35;;
12958;SDS011;6544;51.666;6.634;2022-10-16T02:19:05;40.10;;;35.20;;
12958;SDS011;6544;51.666;6.634;2022-10-16T02:21:33;40.20;;;35.85;;
12958;SDS011;6544;51.666;6.634;2022-10-16T02:24:08;39.38;;;32.50;;
12958;SDS011;6544;51.666;6.634;2022-10-16T02:26:40;34.75;;;31.15;;
12958;SDS011;6544;51.666;6.634;2022-10-16T02:29:12;39.38;;;35.28;;
12958;SDS011;6544;51.666;6.634;2022-10-16T02:31:45;36.83;;;33.03;;
12958;SDS011;6544;51.666;6.634;2022-10-16T02:34:16;29.52;;;26.58;;
12958;SDS011;6544;51.666;6.634;2022-10-16T02:36:47;25.33;;;22.58;;
12958;SDS011;6544;51.666;6.634;2022-10-16T02:39:15;18.35;;;16.40;;
12958;SDS011;6544;51.666;6.634;2022-10-16T02:41:43;13.82;;;12.35;;
12958;SDS011;6544;51.666;6.634;2022-10-16T02:44:10;10.13;;;7.60;;
12958;SDS011;6544;51.666;6.634;2022-10-16T02:46:37;9.48;;;7.45;;
12958;SDS011;6544;51.666;6.634;2022-10-16T02:49:05;11.43;;;5.63;;
12958;SDS011;6544;51.666;6.634;2022-10-16T02:51:32;5.20;;;4.43;;
12958;SDS011;6544;51.666;6.634;2022-10-16T02:53:59;5.10;;;3.70;;
12958;SDS011;6544;51.666;6.634;2022-10-16T02:56:25;5.72;;;4.22;;
12958;SDS011;6544;51.666;6.634;2022-10-16T02:58:52;5.45;;;4.00;;
12958;SDS011;6544;51.666;6.634;2022-10-16T03:01:19;4.88;;;3.00;;
12958;SDS011;6544;51.666;6.634;2022-10-16T03:03:46;6.38;;;3.80;;
12958;SDS011;6544;51.666;6.634;2022-10-16T03:06:14;5.15;;;4.15;;
12958;SDS011;6544;51.666;6.634;2022-10-16T03:08:41;6.88;;;3.78;;
12958;SDS011;6544;51.666;6.634;2022-10-16T03:11:08;6.25;;;4.78;;
12958;SDS011;6544;51.666;6.634;2022-10-16T03:13:35;25.70;;;6.28;;
12958;SDS011;6544;51.666;6.634;2022-10-16T03:16:02;8.57;;;6.70;;
12958;SDS011;6544;51.666;6.634;2022-10-16T03:18:29;8.45;;;6.40;;
12958;SDS011;6544;51.666;6.634;2022-10-16T03:20:56;8.73;;;5.90;;
12958;SDS011;6544;51.666;6.634;2022-10-16T03:23:25;4.82;;;4.32;;
12958;SDS011;6544;51.666;6.634;2022-10-16T03:25:52;5.20;;;3.67;;
12958;SDS011;6544;51.666;6.634;2022-10-16T03:28:19;3.78;;;2.72;;
12958;SDS011;6544;51.666;6.634;2022-10-16T03:30:46;4.00;;;2.83;;
12958;SDS011;6544;51.666;6.634;2022-10-16T03:33:13;6.45;;;2.60;;
12958;SDS011;6544;51.666;6.634;2022-10-16T03:35:40;4.63;;;2.60;;
12958;SDS011;6544;51.666;6.634;2022-10-16T03:38:07;3.55;;;2.00;;
12958;SDS011;6544;51.666;6.634;2022-10-16T03:40:35;2.90;;;2.00;;
12958;SDS011;6544;51.666;6.634;2022-10-16T03:43:02;2.83;;;2.20;;
12958;SDS011;6544;51.666;6.634;2022-10-16T03:45:29;4.60;;;2.20;;
12958;SDS011;6544;51.666;6.634;2022-10-16T03:47:55;6.03;;;2.10;;
12958;SDS011;6544;51.666;6.634;2022-10-16T03:50:22;4.50;;;2.25;;
12958;SDS011;6544;51.666;6.634;2022-10-16T03:52:49;5.78;;;2.90;;
12958;SDS011;6544;51.666;6.634;2022-10-16T03:55:16;3.90;;;2.78;;
12958;SDS011;6544;51.666;6.634;2022-10-16T03:57:44;3.88;;;2.85;;
12958;SDS011;6544;51.666;6.634;2022-10-16T04:00:11;5.00;;;4.00;;
12958;SDS011;6544;51.666;6.634;2022-10-16T04:02:42;6.63;;;4.70;;
12958;SDS011;6544;51.666;6.634;2022-10-16T04:05:08;10.30;;;4.70;;
12958;SDS011;6544;51.666;6.634;2022-10-16T04:07:35;7.35;;;5.53;;
12958;SDS011;6544;51.666;6.634;2022-10-16T04:10:03;11.25;;;6.70;;
12958;SDS011;6544;51.666;6.634;2022-10-16T04:12:30;7.38;;;6.53;;
12958;SDS011;6544;51.666;6.634;2022-10-16T04:14:59;10.35;;;7.00;;
12958;SDS011;6544;51.666;6.634;2022-10-16T04:17:25;7.28;;;5.97;;
12958;SDS011;6544;51.666;6.634;2022-10-16T04:19:52;10.70;;;6.10;;
12958;SDS011;6544;51.666;6.634;2022-10-16T04:22:19;8.65;;;5.53;;
12958;SDS011;6544;51.666;6.634;2022-10-16T04:24:46;10.02;;;6.32;;
12958;SDS011;6544;51.666;6.634;2022-10-16T04:27:13;12.35;;;5.63;;
12958;SDS011;6544;51.666;6.634;2022-10-16T04:29:40;8.43;;;5.43;;
12958;SDS011;6544;51.666;6.634;2022-10-16T04:32:08;8.07;;;4.20;;
12958;SDS011;6544;51.666;6.634;2022-10-16T04:34:35;5.43;;;3.17;;
12958;SDS011;6544;51.666;6.634;2022-10-16T04:37:03;3.97;;;2.47;;
12958;SDS011;6544;51.666;6.634;2022-10-16T04:39:31;5.28;;;2.35;;
12958;SDS011;6544;51.666;6.634;2022-10-16T04:41:58;5.80;;;2.20;;
12958;SDS011;6544;51.666;6.634;2022-10-16T04:44:25;5.60;;;1.90;;
12958;SDS011;6544;51.666;6.634;2022-10-16T04:46:52;3.05;;;1.80;;
12958;SDS011;6544;51.666;6.634;2022-10-16T04:49:20;4.78;;;1.98;;
12958;SDS011;6544;51.666;6.634;2022-10-16T04:51:47;3.58;;;1.88;;
12958;SDS011;6544;51.666;6.634;2022-10-16T04:54:14;2.08;;;1.77;;
12958;SDS011;6544;51.666;6.634;2022-10-16T04:56:41;1.98;;;1.77;;
12958;SDS011;6544;51.666;6.634;2022-10-16T04:59:12;7.18;;;2.05;;
12958;SDS011;6544;51.666;6.634;2022-10-16T05:01:39;3.88;;;1.55;;
12958;SDS011;6544;51.666;6.634;2022-10-16T05:04:06;3.25;;;1.90;;
12958;SDS011;6544;51.666;6.634;2022-10-16T05:06:34;3.25;;;1.83;;
12958;SDS011;6544;51.666;6.634;2022-10-16T05:09:01;4.05;;;2.00;;
12958;SDS011;6544;51.666;6.634;2022-10-16T05:11:28;4.07;;;1.83;;
12958;SDS011;6544;51.666;6.634;2022-10-16T05:13:55;3.17;;;2.30;;
12958;SDS011;6544;51.666;6.634;2022-10-16T05:16:22;6.45;;;2.38;;
12958;SDS011;6544;51.666;6.634;2022-10-16T05:18:49;4.88;;;3.00;;
12958;SDS011;6544;51.666;6.634;2022-10-16T05:21:17;4.13;;;2.42;;
12958;SDS011;6544;51.666;6.634;2022-10-16T05:23:49;2.78;;;2.20;;
12958;SDS011;6544;51.666;6.634;2022-10-16T05:26:15;6.50;;;2.40;;
12958;SDS011;6544;51.666;6.634;2022-10-16T05:28:42;5.47;;;2.00;;
12958;SDS011;6544;51.666;6.634;2022-10-16T05:31:10;5.95;;;2.20;;
12958;SDS011;6544;51.666;6.634;2022-10-16T05:33:37;4.00;;;2.10;;
12958;SDS011;6544;51.666;6.634;2022-10-16T05:36:04;8.60;;;2.28;;
12958;SDS011;6544;51.666;6.634;2022-10-16T05:38:33;4.57;;;2.17;;
12958;SDS011;6544;51.666;6.634;2022-10-16T05:41:01;4.68;;;2.25;;
12958;SDS011;6544;51.666;6.634;2022-10-16T05:43:29;3.75;;;2.22;;
12958;SDS011;6544;51.666;6.634;2022-10-16T05:45:57;4.63;;;2.20;;
12958;SDS011;6544;51.666;6.634;2022-10-16T05:48:26;5.00;;;2.00;;
12958;SDS011;6544;51.666;6.634;2022-10-16T05:50:57;4.05;;;2.03;;
12958;SDS011;6544;51.666;6.634;2022-10-16T05:53:25;2.75;;;2.10;;
12958;SDS011;6544;51.666;6.634;2022-10-16T05:55:53;5.68;;;1.95;;
12958;SDS011;6544;51.666;6.634;2022-10-16T05:58:21;2.85;;;2.15;;
12958;SDS011;6544;51.666;6.634;2022-10-16T06:00:52;4.28;;;2.15;;
12958;SDS011;6544;51.666;6.634;2022-10-16T06:03:20;7.45;;;3.08;;
12958;SDS011;6544;51.666;6.634;2022-10-16T06:05:47;6.53;;;4.43;;
12958;SDS011;6544;51.666;6.634;2022-10-16T06:08:13;10.52;;;5.45;;
12958;SDS011;6544;51.666;6.634;2022-10-16T06:10:40;8.05;;;6.10;;
12958;SDS011;6544;51.666;6.634;2022-10-16T06:13:08;9.48;;;6.47;;
12958;SDS011;6544;51.666;6.634;2022-10-16T06:15:36;6.88;;;5.90;;
12958;SDS011;6544;51.666;6.634;2022-10-16T06:18:04;10.05;;;5.78;;
12958;SDS011;6544;51.666;6.634;2022-10-16T06:20:31;6.47;;;4.47;;
12958;SDS011;6544;51.666;6.634;2022-10-16T06:22:58;6.68;;;5.85;;
12958;SDS011;6544;51.666;6.634;2022-10-16T06:25:24;4.72;;;4.22;;
12958;SDS011;6544;51.666;6.634;2022-10-16T06:27:51;9.00;;;6.55;;
12958;SDS011;6544;51.666;6.634;2022-10-16T06:30:18;7.57;;;6.53;;
12958;SDS011;6544;51.666;6.634;2022-10-16T06:32:46;10.45;;;8.20;;
12958;SDS011;6544;51.666;6.634;2022-10-16T06:35:15;14.50;;;13.00;;
12958;SDS011;6544;51.666;6.634;2022-10-16T06:37:41;20.30;;;13.48;;
12958;SDS011;6544;51.666;6.634;2022-10-16T06:40:08;14.70;;;12.32;;
12958;SDS011;6544;51.666;6.634;2022-10-16T06:42:36;12.75;;;8.98;;
12958;SDS011;6544;51.666;6.634;2022-10-16T06:45:03;7.90;;;4.93;;
12958;SDS011;6544;51.666;6.634;2022-10-16T06:47:30;5.70;;;4.55;;
12958;SDS011;6544;51.666;6.634;2022-10-16T06:49:58;5.75;;;3.28;;
12958;SDS011;6544;51.666;6.634;2022-10-16T06:52:27;5.38;;;2.75;;
12958;SDS011;6544;51.666;6.634;2022-10-16T06:54:54;5.22;;;2.88;;
12958;SDS011;6544;51.666;6.634;2022-10-16T06:57:21;5.03;;;2.47;;
12958;SDS011;6544;51.666;6.634;2022-10-16T06:59:48;3.97;;;2.75;;
12958;SDS011;6544;51.666;6.634;2022-10-16T07:02:15;4.20;;;2.65;;
12958;SDS011;6544;51.666;6.634;2022-10-16T07:04:42;4.57;;;2.38;;
12958;SDS011;6544;51.666;6.634;2022-10-16T07:07:10;4.25;;;2.40;;
12958;SDS011;6544;51.666;6.634;2022-10-16T07:09:37;4.35;;;2.28;;
12958;SDS011;6544;51.666;6.634;2022-10-16T07:12:04;6.85;;;2.50;;
12958;SDS011;6544;51.666;6.634;2022-10-16T07:14:33;5.10;;;2.28;;
12958;SDS011;6544;51.666;6.634;2022-10-16T07:17:00;3.55;;;2.20;;
12958;SDS011;6544;51.666;6.634;2022-10-16T07:19:28;2.78;;;2.00;;
12958;SDS011;6544;51.666;6.634;2022-10-16T07:21:55;2.67;;;2.20;;
12958;SDS011;6544;51.666;6.634;2022-10-16T07:24:23;5.53;;;2.38;;
12958;SDS011;6544;51.666;6.634;2022-10-16T07:26:50;3.05;;;2.30;;
12958;SDS011;6544;51.666;6.634;2022-10-16T07:29:17;3.60;;;2.00;;
12958;SDS011;6544;51.666;6.634;2022-10-16T07:31:46;4.40;;;2.45;;
12958;SDS011;6544;51.666;6.634;2022-10-16T07:34:15;4.53;;;2.47;;
12958;SDS011;6544;51.666;6.634;2022-10-16T07:36:47;3.90;;;2.33;;
12958;SDS011;6544;51.666;6.634;2022-10-16T07:39:15;4.35;;;2.40;;
12958;SDS011;6544;51.666;6.634;2022-10-16T07:41:44;4.15;;;2.03;;
12958;SDS011;6544;51.666;6.634;2022-10-16T07:44:11;3.05;;;2.17;;
12958;SDS011;6544;51.666;6.634;2022-10-16T07:46:37;4.35;;;2.08;;
12958;SDS011;6544;51.666;6.634;2022-10-16T07:49:04;3.50;;;2.20;;
12958;SDS011;6544;51.666;6.634;2022-10-16T07:51:31;4.03;;;2.08;;
12958;SDS011;6544;51.666;6.634;2022-10-16T07:53:58;4.10;;;2.53;;
12958;SDS011;6544;51.666;6.634;2022-10-16T07:56:25;6.28;;;2.60;;
12958;SDS011;6544;51.666;6.634;2022-10-16T07:58:56;6.13;;;2.50;;
12958;SDS011;6544;51.666;6.634;2022-10-16T08:01:23;3.92;;;2.47;;
12958;SDS011;6544;51.666;6.634;2022-10-16T08:03:50;5.03;;;2.60;;
12958;SDS011;6544;51.666;6.634;2022-10-16T08:06:18;5.35;;;2.50;;
12958;SDS011;6544;51.666;6.634;2022-10-16T08:08:46;4.75;;;2.60;;
12958;SDS011;6544;51.666;6.634;2022-10-16T08:11:13;5.60;;;2.10;;
12958;SDS011;6544;51.666;6.634;2022-10-16T08:13:41;4.13;;;2.60;;
12958;SDS011;6544;51.666;6.634;2022-10-16T08:16:09;5.82;;;2.50;;
12958;SDS011;6544;51.666;6.634;2022-10-16T08:18:36;5.38;;;2.40;;
12958;SDS011;6544;51.666;6.634;2022-10-16T08:21:04;5.20;;;2.50;;
12958;SDS011;6544;51.666;6.634;2022-10-16T08:23:36;5.38;;;2.58;;
12958;SDS011;6544;51.666;6.634;2022-10-16T08:26:04;5.57;;;2.20;;
12958;SDS011;6544;51.666;6.634;2022-10-16T08:28:32;4.88;;;2.50;;
12958;SDS011;6544;51.666;6.634;2022-10-16T08:31:06;3.60;;;2.25;;
12958;SDS011;6544;51.666;6.634;2022-10-16T08:33:36;2.67;;;2.00;;
12958;SDS011;6544;51.666;6.634;2022-10-16T08:36:03;7.88;;;2.00;;
12958;SDS011;6544;51.666;6.634;2022-10-16T08:38:31;3.28;;;1.80;;
12958;SDS011;6544;51.666;6.634;2022-10-16T08:41:02;4.75;;;2.00;;
12958;SDS011;6544;51.666;6.634;2022-10-16T08:43:54;4.38;;;1.85;;
12958;SDS011;6544;51.666;6.634;2022-10-16T08:46:36;4.15;;;2.05;;
12958;SDS011;6544;51.666;6.634;2022-10-16T08:49:12;3.35;;;1.80;;
12958;SDS011;6544;51.666;6.634;2022-10-16T08:51:40;4.88;;;1.92;;
12958;SDS011;6544;51.666;6.634;2022-10-16T08:54:11;8.32;;;2.15;;
12958;SDS011;6544;51.666;6.634;2022-10-16T08:56:48;3.42;;;1.75;;
12958;SDS011;6544;51.666;6.634;2022-10-16T08:59:15;3.55;;;1.70;;
12958;SDS011;6544;51.666;6.634;2022-10-16T09:01:44;3.55;;;1.67;;
12958;SDS011;6544;51.666;6.634;2022-10-16T09:07:11;2.75;;;1.70;;
12958;SDS011;6544;51.666;6.634;2022-10-16T09:09:49;3.67;;;1.73;;
12958;SDS011;6544;51.666;6.634;2022-10-16T09:12:36;4.18;;;1.83;;
12958;SDS011;6544;51.666;6.634;2022-10-16T09:15:12;5.60;;;1.90;;
12958;SDS011;6544;51.666;6.634;2022-10-16T09:17:50;3.45;;;1.85;;
12958;SDS011;6544;51.666;6.634;2022-10-16T09:20:26;8.52;;;2.10;;
12958;SDS011;6544;51.666;6.634;2022-10-16T09:25:52;3.45;;;1.80;;
12958;SDS011;6544;51.666;6.634;2022-10-16T09:28:21;4.18;;;1.80;;
12958;SDS011;6544;51.666;6.634;2022-10-16T09:30:48;2.08;;;1.63;;
12958;SDS011;6544;51.666;6.634;2022-10-16T09:33:17;4.38;;;1.75;;
12958;SDS011;6544;51.666;6.634;2022-10-16T09:35:47;3.40;;;1.90;;
12958;SDS011;6544;51.666;6.634;2022-10-16T09:38:23;5.40;;;1.85;;
12958;SDS011;6544;51.666;6.634;2022-10-16T09:40:53;4.57;;;1.88;;
12958;SDS011;6544;51.666;6.634;2022-10-16T09:43:21;3.65;;;1.88;;
12958;SDS011;6544;51.666;6.634;2022-10-16T09:45:53;5.57;;;3.15;;
12958;SDS011;6544;51.666;6.634;2022-10-16T09:48:23;4.45;;;1.95;;
12958;SDS011;6544;51.666;6.634;2022-10-16T09:50:56;3.25;;;1.50;;
12958;SDS011;6544;51.666;6.634;2022-10-16T09:53:25;5.63;;;1.63;;
12958;SDS011;6544;51.666;6.634;2022-10-16T09:56:04;5.28;;;1.90;;
12958;SDS011;6544;51.666;6.634;2022-10-16T09:58:32;5.68;;;2.10;;
12958;SDS011;6544;51.666;6.634;2022-10-16T10:00:59;2.80;;;1.67;;
12958;SDS011;6544;51.666;6.634;2022-10-16T10:03:37;5.20;;;1.70;;
12958;SDS011;6544;51.666;6.634;2022-10-16T10:06:14;4.80;;;2.15;;
12958;SDS011;6544;51.666;6.634;2022-10-16T10:11:46;4.47;;;1.95;;
12958;SDS011;6544;51.666;6.634;2022-10-16T10:14:19;3.30;;;1.70;;
12958;SDS011;6544;51.666;6.634;2022-10-16T10:17:12;6.90;;;2.00;;
12958;SDS011;6544;51.666;6.634;2022-10-16T10:19:43;3.60;;;1.65;;
12958;SDS011;6544;51.666;6.634;2022-10-16T10:22:17;5.68;;;1.80;;
12958;SDS011;6544;51.666;6.634;2022-10-16T10:24:56;4.25;;;2.10;;
12958;SDS011;6544;51.666;6.634;2022-10-16T10:27:29;4.47;;;1.85;;
12958;SDS011;6544;51.666;6.634;2022-10-16T10:30:06;4.07;;;1.70;;
12958;SDS011;6544;51.666;6.634;2022-10-16T10:32:42;5.13;;;2.17;;
12958;SDS011;6544;51.666;6.634;2022-10-16T10:35:21;3.67;;;1.63;;
12958;SDS011;6544;51.666;6.634;2022-10-16T10:37:56;6.35;;;1.70;;
12958;SDS011;6544;51.666;6.634;2022-10-16T10:40:38;6.13;;;1.85;;
12958;SDS011;6544;51.666;6.634;2022-10-16T10:43:15;3.17;;;1.58;;
12958;SDS011;6544;51.666;6.634;2022-10-16T10:45:52;4.28;;;1.80;;
12958;SDS011;6544;51.666;6.634;2022-10-16T10:48:28;5.70;;;1.80;;
12958;SDS011;6544;51.666;6.634;2022-10-16T10:51:21;5.43;;;1.60;;
12958;SDS011;6544;51.666;6.634;2022-10-16T10:54:02;6.28;;;1.90;;
12958;SDS011;6544;51.666;6.634;2022-10-16T10:56:41;6.15;;;1.70;;
12958;SDS011;6544;51.666;6.634;2022-10-16T10:59:20;5.47;;;1.85;;
12958;SDS011;6544;51.666;6.634;2022-10-16T11:01:59;7.20;;;4.63;;
12958;SDS011;6544;51.666;6.634;2022-10-16T11:04:41;4.38;;;1.63;;
12958;SDS011;6544;51.666;6.634;2022-10-16T11:07:32;7.93;;;1.88;;
12958;SDS011;6544;51.666;6.634;2022-10-16T11:10:03;4.07;;;1.50;;
12958;SDS011;6544;51.666;6.634;2022-10-16T11:12:39;4.25;;;1.70;;
12958;SDS011;6544;51.666;6.634;2022-10-16T11:15:11;3.13;;;1.60;;
12958;SDS011;6544;51.666;6.634;2022-10-16T11:17:42;5.93;;;1.67;;
12958;SDS011;6544;51.666;6.634;2022-10-16T11:20:16;5.53;;;1.60;;
12958;SDS011;6544;51.666;6.634;2022-10-16T11:22:50;6.45;;;1.80;;
12958;SDS011;6544;51.666;6.634;2022-10-16T11:25:20;4.28;;;1.58;;
12958;SDS011;6544;51.666;6.634;2022-10-16T11:27:50;4.93;;;1.70;;
12958;SDS011;6544;51.666;6.634;2022-10-16T11:30:22;4.45;;;1.60;;
12958;SDS011;6544;51.666;6.634;2022-10-16T11:32:59;8.70;;;1.90;;
12958;SDS011;6544;51.666;6.634;2022-10-16T11:35:38;4.30;;;1.58;;
12958;SDS011;6544;51.666;6.634;2022-10-16T11:38:12;6.63;;;1.70;;
12958;SDS011;6544;51.666;6.634;2022-10-16T11:40:45;7.45;;;1.83;;
12958;SDS011;6544;51.666;6.634;2022-10-16T11:43:17;3.83;;;1.80;;
12958;SDS011;6544;51.666;6.634;2022-10-16T11:45:51;3.45;;;1.50;;
12958;SDS011;6544;51.666;6.634;2022-10-16T11:58:29;6.10;;;1.98;;
12958;SDS011;6544;51.666;6.634;2022-10-16T12:01:03;5.45;;;1.90;;
12958;SDS011;6544;51.666;6.634;2022-10-16T12:03:46;8.30;;;2.10;;
12958;SDS011;6544;51.666;6.634;2022-10-16T12:06:36;7.68;;;2.20;;
12958;SDS011;6544;51.666;6.634;2022-10-16T12:11:09;3.85;;;1.73;;
12958;SDS011;6544;51.666;6.634;2022-10-16T12:12:53;5.97;;;2.13;;
12958;SDS011;6544;51.666;6.634;2022-10-16T12:15:24;3.72;;;2.05;;
12958;SDS011;6544;51.666;6.634;2022-10-16T12:17:52;5.50;;;2.40;;
12958;SDS011;6544;51.666;6.634;2022-10-16T12:20:30;6.05;;;2.60;;
12958;SDS011;6544;51.666;6.634;2022-10-16T12:23:00;6.10;;;2.70;;
12958;SDS011;6544;51.666;6.634;2022-10-16T12:25:29;8.27;;;2.30;;
12958;SDS011;6544;51.666;6.634;2022-10-16T12:28:01;4.38;;;1.77;;
12958;SDS011;6544;51.666;6.634;2022-10-16T12:30:32;11.75;;;2.03;;
12958;SDS011;6544;51.666;6.634;2022-10-16T12:33:01;8.45;;;1.92;;
12958;SDS011;6544;51.666;6.634;2022-10-16T12:35:30;6.75;;;2.00;;
12958;SDS011;6544;51.666;6.634;2022-10-16T12:38:06;6.05;;;2.38;;
12958;SDS011;6544;51.666;6.634;2022-10-16T12:40:39;7.68;;;2.00;;
12958;SDS011;6544;51.666;6.634;2022-10-16T12:46:19;6.25;;;1.70;;
12958;SDS011;6544;51.666;6.634;2022-10-16T12:48:48;5.95;;;1.80;;
12958;SDS011;6544;51.666;6.634;2022-10-16T12:51:23;7.18;;;1.67;;
12958;SDS011;6544;51.666;6.634;2022-10-16T12:53:58;7.50;;;2.00;;
12958;SDS011;6544;51.666;6.634;2022-10-16T12:56:27;6.47;;;2.08;;
12958;SDS011;6544;51.666;6.634;2022-10-16T12:59:06;7.15;;;2.03;;
12958;SDS011;6544;51.666;6.634;2022-10-16T13:01:52;4.85;;;1.67;;
12958;SDS011;6544;51.666;6.634;2022-10-16T13:04:38;9.13;;;2.17;;
12958;SDS011;6544;51.666;6.634;2022-10-16T13:07:20;5.25;;;1.80;;
12958;SDS011;6544;51.666;6.634;2022-10-16T13:10:02;7.85;;;1.85;;
12958;SDS011;6544;51.666;6.634;2022-10-16T13:12:47;7.13;;;1.70;;
12958;SDS011;6544;51.666;6.634;2022-10-16T13:15:31;5.53;;;1.70;;
12958;SDS011;6544;51.666;6.634;2022-10-16T13:18:12;6.40;;;1.70;;
12958;SDS011;6544;51.666;6.634;2022-10-16T13:20:49;6.07;;;1.90;;
12958;SDS011;6544;51.666;6.634;2022-10-16T13:23:27;7.32;;;2.17;;
12958;SDS011;6544;51.666;6.634;2022-10-16T13:26:04;6.10;;;1.92;;
12958;SDS011;6544;51.666;6.634;2022-10-16T13:28:40;8.32;;;2.10;;
12958;SDS011;6544;51.666;6.634;2022-10-16T13:31:10;5.75;;;2.78;;
12958;SDS011;6544;51.666;6.634;2022-10-16T13:33:45;5.63;;;1.75;;
12958;SDS011;6544;51.666;6.634;2022-10-16T13:36:19;6.05;;;1.95;;
12958;SDS011;6544;51.666;6.634;2022-10-16T13:38:47;3.42;;;1.63;;
12958;SDS011;6544;51.666;6.634;2022-10-16T13:41:15;4.95;;;1.70;;
12958;SDS011;6544;51.666;6.634;2022-10-16T13:43:45;3.10;;;1.58;;
12958;SDS011;6544;51.666;6.634;2022-10-16T13:46:32;3.92;;;1.52;;
12958;SDS011;6544;51.666;6.634;2022-10-16T13:49:01;4.95;;;1.50;;
12958;SDS011;6544;51.666;6.634;2022-10-16T13:51:31;5.85;;;1.90;;
12958;SDS011;6544;51.666;6.634;2022-10-16T13:53:59;4.15;;;1.50;;
12958;SDS011;6544;51.666;6.634;2022-10-16T13:56:26;4.15;;;1.90;;
12958;SDS011;6544;51.666;6.634;2022-10-16T13:58:59;6.43;;;2.03;;
12958;SDS011;6544;51.666;6.634;2022-10-16T14:01:27;6.10;;;1.95;;
12958;SDS011;6544;51.666;6.634;2022-10-16T14:04:01;5.65;;;1.92;;
12958;SDS011;6544;51.666;6.634;2022-10-16T14:06:31;8.95;;;1.90;;
12958;SDS011;6544;51.666;6.634;2022-10-16T14:08:59;6.60;;;2.00;;
12958;SDS011;6544;51.666;6.634;2022-10-16T14:11:31;5.68;;;1.70;;
12958;SDS011;6544;51.666;6.634;2022-10-16T14:14:03;3.70;;;1.80;;
12958;SDS011;6544;51.666;6.634;2022-10-16T14:16:30;4.32;;;1.48;;
12958;SDS011;6544;51.666;6.634;2022-10-16T14:18:59;3.40;;;1.20;;
12958;SDS011;6544;51.666;6.634;2022-10-16T14:21:31;4.60;;;1.70;;
12958;SDS011;6544;51.666;6.634;2022-10-16T14:23:58;2.08;;;1.13;;
12958;SDS011;6544;51.666;6.634;2022-10-16T14:26:26;2.80;;;1.30;;
12958;SDS011;6544;51.666;6.634;2022-10-16T14:29:10;3.30;;;1.33;;
12958;SDS011;6544;51.666;6.634;2022-10-16T14:31:38;4.10;;;1.35;;
12958;SDS011;6544;51.666;6.634;2022-10-16T14:36:52;4.95;;;1.50;;
12958;SDS011;6544;51.666;6.634;2022-10-16T14:39:20;2.88;;;1.13;;
12958;SDS011;6544;51.666;6.634;2022-10-16T14:41:49;3.60;;;1.30;;
12958;SDS011;6544;51.666;6.634;2022-10-16T14:44:17;2.78;;;1.40;;
12958;SDS011;6544;51.666;6.634;2022-10-16T14:46:46;3.08;;;1.40;;
12958;SDS011;6544;51.666;6.634;2022-10-16T14:49:15;3.20;;;1.45;;
12958;SDS011;6544;51.666;6.634;2022-10-16T14:51:46;2.50;;;1.35;;
12958;SDS011;6544;51.666;6.634;2022-10-16T14:54:13;4.03;;;1.42;;
12958;SDS011;6544;51.666;6.634;2022-10-16T14:56:43;3.20;;;2.00;;
12958;SDS011;6544;51.666;6.634;2022-10-16T14:59:14;2.95;;;1.67;;
12958;SDS011;6544;51.666;6.634;2022-10-16T15:01:43;6.32;;;2.78;;
12958;SDS011;6544;51.666;6.634;2022-10-16T15:04:11;5.18;;;2.45;;
12958;SDS011;6544;51.666;6.634;2022-10-16T15:06:39;8.80;;;2.42;;
12958;SDS011;6544;51.666;6.634;2022-10-16T15:09:07;5.45;;;2.03;;
12958;SDS011;6544;51.666;6.634;2022-10-16T15:11:34;4.82;;;1.92;;
12958;SDS011;6544;51.666;6.634;2022-10-16T15:14:01;3.25;;;1.80;;
12958;SDS011;6544;51.666;6.634;2022-10-16T15:16:29;4.13;;;1.73;;
12958;SDS011;6544;51.666;6.634;2022-10-16T15:18:57;4.38;;;1.73;;
12958;SDS011;6544;51.666;6.634;2022-10-16T15:21:24;5.47;;;1.58;;
12958;SDS011;6544;51.666;6.634;2022-10-16T15:23:54;4.32;;;2.40;;
12958;SDS011;6544;51.666;6.634;2022-10-16T15:26:25;5.35;;;2.63;;
12958;SDS011;6544;51.666;6.634;2022-10-16T15:28:53;5.60;;;2.67;;
12958;SDS011;6544;51.666;6.634;2022-10-16T15:31:20;4.75;;;2.35;;
12958;SDS011;6544;51.666;6.634;2022-10-16T15:33:49;3.10;;;1.70;;
12958;SDS011;6544;51.666;6.634;2022-10-16T15:36:24;5.72;;;2.28;;
12958;SDS011;6544;51.666;6.634;2022-10-16T15:38:52;5.13;;;2.47;;
12958;SDS011;6544;51.666;6.634;2022-10-16T15:41:19;2.22;;;1.60;;
12958;SDS011;6544;51.666;6.634;2022-10-16T15:43:48;4.95;;;1.80;;
12958;SDS011;6544;51.666;6.634;2022-10-16T15:46:17;5.03;;;2.00;;